Time;durP1;ratioP1;P1;durP2;ratioP2;P2;SDS_P1;SDS_P2;PMS_P1;PMS_P2;Temp;Humidity;BMP_temperature;BMP_pressure;BME280_temperature;BME280_humidity;BME280_pressure;Samples;Min_cycle;Max_cycle;Signal;HPM_P1;HPM_P2
2023/03/19 00:01:45;;;;;;;8.90;5.13;;;;;;;10.12;100.00;101075.72;5249429;28;20021;-79
2023/03/19 00:04:16;;;;;;;9.18;4.88;;;;;;;10.10;100.00;101086.59;5232734;28;20028;-79
2023/03/19 00:06:46;;;;;;;14.85;5.88;;;;;;;10.08;100.00;101085.06;5250838;28;20048;-82
2023/03/19 00:09:18;;;;;;;11.98;6.05;;;;;;;10.07;100.00;101091.44;5234955;28;20039;-80
2023/03/19 00:11:49;;;;;;;11.80;6.10;;;;;;;10.04;100.00;101089.03;5250637;28;20025;-80
2023/03/19 00:14:19;;;;;;;8.50;5.32;;;;;;;10.01;100.00;101092.91;5232223;28;20055;-80
2023/03/19 00:16:50;;;;;;;14.73;5.80;;;;;;;9.98;100.00;101095.88;5231439;28;20017;-80
2023/03/19 00:19:21;;;;;;;12.55;6.00;;;;;;;9.98;100.00;101100.41;5245016;28;20021;-80
2023/03/19 00:21:51;;;;;;;14.48;6.68;;;;;;;9.96;100.00;101100.56;5245712;28;20054;-80
2023/03/19 00:24:22;;;;;;;11.68;5.65;;;;;;;9.96;100.00;101095.22;5232873;28;20099;-80
2023/03/19 00:26:52;;;;;;;12.50;6.07;;;;;;;9.97;100.00;101098.72;5250140;28;20115;-80
2023/03/19 00:29:23;;;;;;;9.25;5.93;;;;;;;9.96;100.00;101089.84;5223616;28;20055;-81
2023/03/19 00:31:53;;;;;;;11.98;6.32;;;;;;;9.96;100.00;101097.88;5250835;28;20020;-80
2023/03/19 00:34:24;;;;;;;16.80;5.57;;;;;;;9.94;100.00;101093.66;5253843;28;20021;-82
2023/03/19 00:36:55;;;;;;;11.85;5.75;;;;;;;9.94;100.00;101093.66;5254244;28;20042;-81
2023/03/19 00:39:26;;;;;;;11.95;5.88;;;;;;;9.91;100.00;101094.84;5251396;28;20020;-81
2023/03/19 00:41:56;;;;;;;11.05;6.65;;;;;;;9.90;100.00;101090.47;5248451;28;20035;-81
2023/03/19 00:44:27;;;;;;;12.15;6.32;;;;;;;9.86;100.00;101087.25;5250596;28;20070;-81
2023/03/19 00:46:57;;;;;;;12.95;6.90;;;;;;;9.85;100.00;101090.09;5249329;28;20033;-81
2023/03/19 00:49:27;;;;;;;11.27;6.28;;;;;;;9.84;100.00;101091.09;5249938;28;20025;-81
2023/03/19 00:51:58;;;;;;;18.90;6.13;;;;;;;9.79;100.00;101086.22;5233149;28;20062;-81
2023/03/19 00:54:31;;;;;;;10.30;6.18;;;;;;;9.82;100.00;101096.59;5250769;28;20024;-81
2023/03/19 00:57:01;;;;;;;10.27;6.10;;;;;;;9.79;100.00;101099.59;5249740;28;20016;-81
2023/03/19 00:59:32;;;;;;;11.35;6.25;;;;;;;9.78;100.00;101105.09;5250664;28;20561;-81
2023/03/19 01:02:03;;;;;;;9.20;5.65;;;;;;;9.78;100.00;101107.78;5251276;28;20451;-81
2023/03/19 01:04:33;;;;;;;15.73;6.82;;;;;;;9.75;100.00;101102.75;5251358;28;20067;-81
2023/03/19 01:07:04;;;;;;;10.80;6.47;;;;;;;9.74;100.00;101104.59;5233885;28;20092;-81
2023/03/19 01:09:34;;;;;;;16.48;6.63;;;;;;;9.75;100.00;101108.94;5246850;28;20016;-81
2023/03/19 01:12:06;;;;;;;10.50;6.28;;;;;;;9.74;100.00;101103.72;5251812;28;20050;-81
2023/03/19 01:14:36;;;;;;;15.48;6.57;;;;;;;9.75;100.00;101110.78;5235488;28;20388;-81
2023/03/19 01:17:07;;;;;;;12.50;6.97;;;;;;;9.75;100.00;101111.63;5251030;28;20093;-81
2023/03/19 01:19:37;;;;;;;9.68;5.95;;;;;;;9.74;100.00;101109.94;5234048;28;20027;-81
2023/03/19 01:22:08;;;;;;;14.57;6.75;;;;;;;9.73;100.00;101116.28;5221824;28;20021;-81
2023/03/19 01:24:38;;;;;;;15.85;6.65;;;;;;;9.73;100.00;101107.41;5253117;28;20031;-81
2023/03/19 01:27:09;;;;;;;15.88;6.03;;;;;;;9.73;100.00;101102.88;5234938;28;20031;-80
2023/03/19 01:29:40;;;;;;;13.15;5.85;;;;;;;9.73;100.00;101110.91;5257517;28;20054;-80
2023/03/19 01:32:10;;;;;;;12.30;6.60;;;;;;;9.74;100.00;101107.28;5256320;28;20119;-80
2023/03/19 01:34:41;;;;;;;14.93;6.05;;;;;;;9.75;100.00;101105.44;5255857;28;20051;-80
2023/03/19 01:37:11;;;;;;;13.98;6.00;;;;;;;9.76;100.00;101121.34;5255105;28;20024;-80
2023/03/19 01:39:42;;;;;;;13.63;6.30;;;;;;;9.76;100.00;101115.97;5256448;28;20028;-80
2023/03/19 01:42:12;;;;;;;12.00;5.55;;;;;;;9.79;100.00;101120.22;5235621;28;20025;-81
2023/03/19 01:44:43;;;;;;;11.48;5.43;;;;;;;9.81;100.00;101115.53;5256653;28;20052;-80
2023/03/19 01:47:15;;;;;;;13.45;6.03;;;;;;;9.80;100.00;101109.31;5255287;28;20027;-80
2023/03/19 01:49:53;;;;;;;10.88;5.40;;;;;;;9.82;100.00;101114.50;5239098;28;20017;-81
2023/03/19 01:52:26;;;;;;;11.45;6.10;;;;;;;9.85;100.00;101123.09;5237988;28;20397;-81
2023/03/19 01:55:00;;;;;;;12.20;5.50;;;;;;;9.86;100.00;101121.25;5256389;28;20029;-80
2023/03/19 01:57:31;;;;;;;8.80;5.60;;;;;;;9.86;100.00;101118.56;5251269;28;20099;-81
2023/03/19 02:00:06;;;;;;;10.70;5.32;;;;;;;9.87;100.00;101112.22;5247002;28;20111;-80
2023/03/19 02:02:37;;;;;;;9.18;5.38;;;;;;;9.88;100.00;101113.06;5248267;28;20032;-80
2023/03/19 02:05:10;;;;;;;10.38;5.13;;;;;;;9.92;100.00;101117.09;5230529;28;20616;-80
2023/03/19 02:07:44;;;;;;;9.95;4.90;;;;;;;10.02;100.00;101117.84;5247559;28;20024;-80
2023/03/19 02:10:16;;;;;;;8.23;4.90;;;;;;;10.04;100.00;101119.41;5248218;28;20040;-80
2023/03/19 02:12:47;;;;;;;8.02;4.28;;;;;;;10.06;100.00;101120.06;5248963;28;20062;-80
2023/03/19 02:15:18;;;;;;;8.45;4.53;;;;;;;10.05;100.00;101123.75;5231415;28;20080;-80
2023/03/19 02:17:49;;;;;;;8.25;5.00;;;;;;;10.08;100.00;101122.59;5230932;28;20252;-80
2023/03/19 02:20:49;;;;;;;12.60;4.80;;;;;;;10.09;100.00;101118.91;5243865;28;20121;-80
2023/03/19 02:23:38;;;;;;;8.93;4.30;;;;;;;10.08;100.00;101126.09;5226867;28;20386;-80
2023/03/19 02:26:12;;;;;;;7.90;4.50;;;;;;;10.10;100.00;101120.63;5232807;28;20028;-80
2023/03/19 02:28:46;;;;;;;8.85;4.28;;;;;;;10.12;100.00;101124.81;5249672;28;20035;-80
2023/03/19 02:31:17;;;;;;;6.45;4.15;;;;;;;10.11;100.00;101123.13;5236967;28;20024;-80
2023/03/19 02:33:59;;;;;;;7.40;4.72;;;;;;;10.12;100.00;101118.59;5252534;28;20028;-80
2023/03/19 02:36:36;;;;;;;9.05;4.70;;;;;;;10.13;100.00;101121.13;5239516;28;20029;-80
2023/03/19 02:39:16;;;;;;;9.48;4.63;;;;;;;10.13;100.00;101125.63;5257862;28;20039;-80
2023/03/19 02:41:50;;;;;;;10.50;4.55;;;;;;;10.10;100.00;101115.25;5238453;28;20469;-81
2023/03/19 02:44:20;;;;;;;11.38;4.65;;;;;;;10.11;100.00;101117.75;5258561;28;20476;-80
2023/03/19 02:46:51;;;;;;;12.15;4.70;;;;;;;10.13;100.00;101117.59;5256560;28;20120;-80
2023/03/19 02:49:21;;;;;;;11.93;4.78;;;;;;;10.12;100.00;101124.81;5258355;28;20024;-80
2023/03/19 02:51:52;;;;;;;9.63;4.78;;;;;;;10.13;100.00;101131.00;5239212;28;20025;-80
2023/03/19 02:54:23;;;;;;;10.23;4.93;;;;;;;10.13;100.00;101133.69;5258620;28;20158;-80
2023/03/19 02:57:04;;;;;;;10.18;4.45;;;;;;;10.13;100.00;101133.69;5258010;28;20031;-80
2023/03/19 02:59:35;;;;;;;14.13;5.03;;;;;;;10.10;100.00;101126.81;5247011;28;20017;-81
2023/03/19 03:02:06;;;;;;;9.05;5.13;;;;;;;10.08;100.00;101126.09;5256503;28;20021;-80
2023/03/19 03:04:37;;;;;;;11.27;5.78;;;;;;;10.05;100.00;101129.13;5259330;28;20012;-80
2023/03/19 03:07:17;;;;;;;11.07;5.85;;;;;;;10.02;100.00;101124.06;5244288;28;20032;-80
2023/03/19 03:09:48;;;;;;;12.43;6.18;;;;;;;9.97;100.00;101120.16;5259919;28;20016;-80
2023/03/19 03:12:18;;;;;;;11.15;5.10;;;;;;;9.90;100.00;101119.97;5261499;28;20032;-80
2023/03/19 03:14:50;;;;;;;10.57;5.22;;;;;;;9.85;100.00;101108.84;5243458;28;20039;-80
2023/03/19 03:17:20;;;;;;;10.30;5.70;;;;;;;9.79;100.00;101115.69;5242509;28;20025;-80
2023/03/19 03:19:52;;;;;;;12.13;5.35;;;;;;;9.73;100.00;101112.75;5240802;28;20028;-80
2023/03/19 03:22:22;;;;;;;8.73;5.45;;;;;;;9.64;100.00;101113.69;5251358;28;20028;-80
2023/03/19 03:24:53;;;;;;;10.13;5.53;;;;;;;9.56;100.00;101123.34;5240433;28;20441;-80
2023/03/19 03:27:23;;;;;;;12.32;5.72;;;;;;;9.49;100.00;101127.63;5239009;28;20028;-80
2023/03/19 03:29:54;;;;;;;10.80;5.93;;;;;;;9.41;100.00;101124.84;5272223;28;20362;-80
2023/03/19 03:32:25;;;;;;;11.35;6.32;;;;;;;9.31;100.00;101130.28;5234506;28;20050;-80
2023/03/19 03:34:55;;;;;;;13.45;6.80;;;;;;;9.23;100.00;101127.50;5239397;28;20417;-80
2023/03/19 03:37:26;;;;;;;13.50;6.60;;;;;;;9.15;100.00;101134.63;5256850;28;20104;-80
2023/03/19 03:39:57;;;;;;;13.35;6.65;;;;;;;9.04;100.00;101136.50;5257359;28;20047;-80
2023/03/19 03:42:27;;;;;;;13.70;5.88;;;;;;;8.91;100.00;101132.50;5239695;28;20055;-80
2023/03/19 03:44:58;;;;;;;15.15;7.22;;;;;;;8.78;100.00;101135.50;5239371;28;20032;-80
2023/03/19 03:47:28;;;;;;;60.38;8.82;;;;;;;8.67;100.00;101141.03;5257140;28;20035;-80
2023/03/19 03:49:58;;;;;;;13.90;6.35;;;;;;;8.56;100.00;101147.41;5256789;28;20024;-80
2023/03/19 03:52:30;;;;;;;17.65;8.02;;;;;;;8.48;100.00;101140.13;5255706;28;20028;-80
2023/03/19 03:55:01;;;;;;;14.30;7.95;;;;;;;8.44;100.00;101137.88;5256975;28;20503;-80
2023/03/19 03:57:32;;;;;;;14.80;8.52;;;;;;;8.41;100.00;101141.69;5255767;28;20025;-80
2023/03/19 04:00:03;;;;;;;15.35;8.68;;;;;;;8.39;100.00;101149.03;5236822;28;20052;-80
2023/03/19 04:02:34;;;;;;;25.48;11.25;;;;;;;8.41;100.00;101144.34;5253899;28;20028;-80
2023/03/19 04:05:06;;;;;;;20.25;9.85;;;;;;;8.42;100.00;101143.38;5242598;28;20024;-80
2023/03/19 04:07:37;;;;;;;28.90;11.40;;;;;;;8.39;100.00;101135.66;5234759;28;20082;-80
2023/03/19 04:10:10;;;;;;;30.05;12.90;;;;;;;8.36;100.00;101143.94;5243600;28;20051;-80
2023/03/19 04:12:40;;;;;;;84.15;13.50;;;;;;;8.31;100.00;101140.84;5253801;28;20047;-80
2023/03/19 04:15:11;;;;;;;55.70;11.30;;;;;;;8.20;100.00;101139.19;5254174;28;20028;-80
2023/03/19 04:17:42;;;;;;;19.70;6.97;;;;;;;8.09;100.00;101142.00;5254246;28;20024;-80
2023/03/19 04:20:15;;;;;;;77.97;11.98;;;;;;;8.01;100.00;101140.03;5233396;28;20693;-80
2023/03/19 04:22:45;;;;;;;74.88;11.13;;;;;;;7.90;100.00;101137.53;5236420;28;20115;-80
2023/03/19 04:25:17;;;;;;;75.35;9.18;;;;;;;7.84;100.00;101151.44;5254568;28;20170;-80
2023/03/19 04:27:47;;;;;;;11.00;6.07;;;;;;;7.78;100.00;101152.88;5253858;28;20032;-80
2023/03/19 04:30:19;;;;;;;23.80;9.93;;;;;;;7.79;100.00;101153.69;5253759;28;20012;-80
2023/03/19 04:32:49;;;;;;;22.20;11.00;;;;;;;7.84;100.00;101151.44;5234474;28;20050;-79
2023/03/19 04:35:20;;;;;;;22.55;10.18;;;;;;;7.80;100.00;101160.72;5236702;28;20021;-80
2023/03/19 04:37:50;;;;;;;16.52;10.07;;;;;;;7.67;100.00;101160.16;5253264;28;20062;-80
2023/03/19 04:40:21;;;;;;;20.15;8.98;;;;;;;7.55;100.00;101161.28;5250101;28;20021;-80
2023/03/19 04:42:52;;;;;;;68.57;10.02;;;;;;;7.41;100.00;101170.53;5248126;28;20102;-80
2023/03/19 04:45:23;;;;;;;91.47;9.65;;;;;;;7.33;100.00;101168.56;5234924;28;20024;-80
2023/03/19 04:47:55;;;;;;;375.70;22.25;;;;;;;7.23;100.00;101165.88;5252726;28;20361;-80
2023/03/19 04:50:25;;;;;;;359.77;21.88;;;;;;;7.11;100.00;101166.09;5235609;28;20370;-80
2023/03/19 04:52:56;;;;;;;413.35;21.50;;;;;;;7.06;100.00;101173.66;5236216;28;20043;-80
2023/03/19 04:55:27;;;;;;;309.55;16.02;;;;;;;7.01;100.00;101169.56;5252969;28;20027;-80
2023/03/19 04:57:57;;;;;;;55.33;10.73;;;;;;;6.99;100.00;101171.53;5253126;28;20035;-80
2023/03/19 05:00:29;;;;;;;21.58;9.90;;;;;;;7.02;100.00;101175.75;5253070;28;20031;-80
2023/03/19 05:03:00;;;;;;;139.30;13.77;;;;;;;7.04;100.00;101176.47;5235720;28;20016;-80
2023/03/19 05:05:30;;;;;;;26.38;8.15;;;;;;;7.04;100.00;101180.97;5234980;28;20082;-80
2023/03/19 05:08:01;;;;;;;61.38;10.55;;;;;;;7.00;100.00;101181.22;5230833;28;20031;-80
2023/03/19 05:10:32;;;;;;;27.63;13.30;;;;;;;7.04;100.00;101181.81;5258769;28;20055;-81
2023/03/19 05:13:03;;;;;;;24.73;11.23;;;;;;;7.07;100.00;101183.34;5226673;28;20421;-80
2023/03/19 05:15:34;;;;;;;88.32;14.38;;;;;;;7.09;100.00;101186.75;5225591;28;20027;-80
2023/03/19 05:18:04;;;;;;;164.10;22.52;;;;;;;7.08;100.00;101185.91;5243843;28;20116;-80
2023/03/19 05:20:36;;;;;;;306.40;22.77;;;;;;;7.06;100.00;101185.19;5226037;28;20020;-80
2023/03/19 05:23:06;;;;;;;239.48;19.25;;;;;;;7.00;100.00;101181.22;5226383;28;20043;-80
2023/03/19 05:25:37;;;;;;;24.27;9.77;;;;;;;6.98;100.00;101193.03;5246166;28;20021;-81
2023/03/19 05:28:07;;;;;;;105.00;12.40;;;;;;;6.93;100.00;101177.44;5226092;28;20021;-80
2023/03/19 05:30:38;;;;;;;294.65;18.52;;;;;;;6.86;100.00;101184.25;5245105;28;20017;-81
2023/03/19 05:33:09;;;;;;;425.02;28.10;;;;;;;6.76;100.00;101186.03;5216133;28;20031;-81
2023/03/19 05:35:39;;;;;;;409.58;21.35;;;;;;;6.68;100.00;101193.88;5227846;28;20409;-81
2023/03/19 05:38:10;;;;;;;384.45;22.50;;;;;;;6.61;100.00;101198.03;5226885;28;20028;-80
2023/03/19 05:40:41;;;;;;;275.25;19.13;;;;;;;6.62;100.00;101197.03;5239611;28;20025;-81
2023/03/19 05:43:11;;;;;;;368.52;23.55;;;;;;;6.62;100.00;101205.03;5226418;28;20025;-81
2023/03/19 05:45:42;;;;;;;251.82;18.83;;;;;;;6.60;100.00;101199.00;5228148;28;20029;-82
2023/03/19 05:48:13;;;;;;;55.22;14.85;;;;;;;6.60;100.00;101205.19;5245801;28;20100;-81
2023/03/19 05:50:43;;;;;;;42.35;14.95;;;;;;;6.68;100.00;101207.22;5246315;28;20547;-81
2023/03/19 05:53:14;;;;;;;45.78;17.17;;;;;;;6.73;100.00;101205.00;5245743;28;20033;-82
2023/03/19 05:55:44;;;;;;;61.60;20.27;;;;;;;6.83;100.00;101211.22;5243568;28;20020;-78
2023/03/19 05:58:15;;;;;;;54.58;19.50;;;;;;;6.86;100.00;101213.59;5234965;28;20032;-78
2023/03/19 06:00:47;;;;;;;53.05;18.38;;;;;;;6.84;100.00;101218.22;5230506;28;20021;-78
2023/03/19 06:03:18;;;;;;;43.92;16.83;;;;;;;6.82;100.00;101206.84;5231953;28;20079;-78
2023/03/19 06:05:49;;;;;;;40.55;14.93;;;;;;;6.81;100.00;101213.16;5240929;28;20540;-78
2023/03/19 06:08:20;;;;;;;42.90;16.73;;;;;;;6.77;100.00;101206.38;5237238;28;20025;-78
2023/03/19 06:10:51;;;;;;;51.83;17.40;;;;;;;6.74;100.00;101210.19;5241889;28;20027;-78
2023/03/19 06:13:22;;;;;;;59.08;14.10;;;;;;;6.72;100.00;101214.78;5241918;28;20024;-78
2023/03/19 06:15:52;;;;;;;33.00;10.55;;;;;;;6.69;100.00;101219.56;5243701;28;20567;-78
2023/03/19 06:18:23;;;;;;;40.75;14.05;;;;;;;6.67;100.00;101224.16;5244911;28;20021;-78
2023/03/19 06:20:53;;;;;;;54.80;18.38;;;;;;;6.69;100.00;101224.88;5241461;28;20028;-78
2023/03/19 06:23:24;;;;;;;68.47;19.40;;;;;;;6.75;100.00;101227.84;5245446;28;20024;-79
2023/03/19 06:25:55;;;;;;;76.88;25.23;;;;;;;6.91;100.00;101229.19;5245298;28;20086;-78
2023/03/19 06:28:25;;;;;;;69.28;24.58;;;;;;;7.10;100.00;101228.44;5244366;28;20123;-78
2023/03/19 06:30:56;;;;;;;86.72;25.35;;;;;;;7.22;100.00;101240.69;5245299;28;20016;-78
2023/03/19 06:33:30;;;;;;;73.65;23.60;;;;;;;7.35;100.00;101238.66;5244569;28;20145;-78
2023/03/19 06:36:01;;;;;;;73.30;21.98;;;;;;;7.68;100.00;101239.28;5245073;28;20075;-78
2023/03/19 06:38:32;;;;;;;42.80;17.05;;;;;;;7.91;100.00;101243.41;5245041;28;20052;-78
2023/03/19 06:41:02;;;;;;;38.45;15.60;;;;;;;8.00;100.00;101239.03;5239496;28;20480;-78
2023/03/19 06:43:35;;;;;;;66.30;26.88;;;;;;;8.03;100.00;101249.44;5245007;28;20021;-78
2023/03/19 06:46:08;;;;;;;37.92;15.77;;;;;;;8.04;100.00;101249.31;5245467;28;20082;-80
2023/03/19 06:48:38;;;;;;;37.33;13.35;;;;;;;8.16;100.00;101250.00;5239719;28;20016;-78
2023/03/19 06:51:09;;;;;;;28.85;12.90;;;;;;;8.53;100.00;101250.19;5245085;28;20029;-77
2023/03/19 06:53:39;;;;;;;29.65;12.80;;;;;;;8.89;100.00;101254.88;5244073;28;20098;-77
2023/03/19 06:56:10;;;;;;;24.65;11.77;;;;;;;9.20;100.00;101261.66;5244653;28;20769;-77
2023/03/19 06:58:41;;;;;;;22.75;12.48;;;;;;;9.30;100.00;101264.31;5244310;28;20116;-78
2023/03/19 07:01:11;;;;;;;22.08;11.65;;;;;;;9.21;100.00;101270.53;5245076;28;20030;-78
2023/03/19 07:03:42;;;;;;;21.90;11.82;;;;;;;9.07;100.00;101261.97;5225842;28;20048;-78
2023/03/19 07:06:12;;;;;;;24.55;11.48;;;;;;;9.00;100.00;101271.59;5226235;28;20028;-77
2023/03/19 07:08:45;;;;;;;25.58;12.30;;;;;;;8.89;100.00;101268.25;5243888;28;20111;-78
2023/03/19 07:11:15;;;;;;;33.72;13.35;;;;;;;8.82;100.00;101268.81;5244573;28;20028;-78
2023/03/19 07:13:46;;;;;;;29.33;12.82;;;;;;;8.72;100.00;101275.19;5244668;28;20024;-77
2023/03/19 07:16:16;;;;;;;28.58;11.10;;;;;;;8.64;100.00;101283.09;5243864;28;20034;-77
2023/03/19 07:18:47;;;;;;;28.27;13.73;;;;;;;8.57;100.00;101286.31;5243820;28;20032;-77
2023/03/19 07:21:17;;;;;;;26.50;11.98;;;;;;;8.58;100.00;101295.19;5234932;28;20039;-78
2023/03/19 07:23:49;;;;;;;24.50;11.60;;;;;;;8.57;100.00;101291.66;5244453;28;20520;-77
2023/03/19 07:26:20;;;;;;;26.92;11.88;;;;;;;8.62;100.00;101287.72;5243360;28;20036;-77
2023/03/19 07:28:50;;;;;;;30.38;11.88;;;;;;;8.98;100.00;101300.31;5243674;28;20025;-77
2023/03/19 07:31:21;;;;;;;20.98;10.20;;;;;;;9.34;100.00;101306.72;5244462;28;20034;-77
2023/03/19 07:33:51;;;;;;;21.00;10.13;;;;;;;9.74;100.00;101301.97;5235547;28;20024;-77
2023/03/19 07:36:22;;;;;;;21.33;9.48;;;;;;;10.57;100.00;101300.84;5243739;28;20021;-77
2023/03/19 07:38:52;;;;;;;20.50;8.15;;;;;;;11.30;100.00;101307.72;5243886;28;20028;-77
2023/03/19 07:41:23;;;;;;;15.65;7.22;;;;;;;11.99;100.00;101301.28;5240959;28;20024;-78
2023/03/19 07:43:53;;;;;;;15.98;6.20;;;;;;;12.97;100.00;101295.97;5243663;28;20111;-77
2023/03/19 07:46:24;;;;;;;14.68;5.85;;;;;;;12.88;100.00;101283.50;5243072;28;20497;-78
2023/03/19 07:48:54;;;;;;;14.85;6.25;;;;;;;13.20;100.00;101293.38;5225735;28;20033;-77
2023/03/19 07:51:25;;;;;;;10.73;5.22;;;;;;;13.40;100.00;101289.31;5243776;28;20034;-77
2023/03/19 07:53:55;;;;;;;15.13;5.75;;;;;;;14.06;100.00;101295.25;5242606;28;20025;-77
2023/03/19 07:56:26;;;;;;;17.90;5.07;;;;;;;13.50;100.00;101288.25;5243181;28;20539;-78
2023/03/19 07:58:57;;;;;;;12.98;5.43;;;;;;;13.92;100.00;101288.72;5243313;28;20396;-78
2023/03/19 08:01:27;;;;;;;13.77;4.93;;;;;;;14.31;100.00;101295.03;5243400;28;20050;-77
2023/03/19 08:03:58;;;;;;;9.73;4.43;;;;;;;14.67;100.00;101295.31;5243463;28;20048;-78
2023/03/19 08:06:28;;;;;;;9.38;4.57;;;;;;;13.72;100.00;101299.13;5232631;28;20039;-78
2023/03/19 08:08:59;;;;;;;10.82;5.03;;;;;;;12.84;100.00;101298.31;5243351;28;20024;-77
2023/03/19 08:11:30;;;;;;;14.60;5.20;;;;;;;12.69;100.00;101301.69;5243362;28;20104;-77
2023/03/19 08:14:00;;;;;;;10.10;4.72;;;;;;;12.84;100.00;101304.53;5243069;28;20020;-77
2023/03/19 08:16:31;;;;;;;12.27;4.55;;;;;;;13.25;100.00;101304.50;5242765;28;20074;-77
2023/03/19 08:19:02;;;;;;;13.00;5.32;;;;;;;13.70;100.00;101303.00;5242492;28;20039;-77
2023/03/19 08:21:32;;;;;;;11.82;4.65;;;;;;;14.37;100.00;101300.59;5237114;28;20032;-77
2023/03/19 08:24:03;;;;;;;12.40;4.07;;;;;;;15.10;100.00;101293.69;5242819;28;20027;-77
2023/03/19 08:26:33;;;;;;;13.20;4.18;;;;;;;15.40;100.00;101299.97;5242627;28;20058;-77
2023/03/19 08:29:05;;;;;;;15.98;4.05;;;;;;;14.92;100.00;101295.94;5243166;28;20104;-77
2023/03/19 08:31:35;;;;;;;12.57;3.95;;;;;;;14.21;100.00;101296.16;5242068;28;20183;-77
2023/03/19 08:34:09;;;;;;;15.45;3.63;;;;;;;14.43;100.00;101302.56;5239936;28;20029;-77
2023/03/19 08:36:39;;;;;;;18.02;4.78;;;;;;;15.38;100.00;101293.06;5242035;28;20031;-77
2023/03/19 08:39:10;;;;;;;9.38;2.63;;;;;;;15.60;100.00;101304.78;5243097;28;20388;-76
2023/03/19 08:41:40;;;;;;;9.65;3.45;;;;;;;15.88;100.00;101302.28;5235002;28;20522;-75
2023/03/19 08:44:10;;;;;;;11.82;3.22;;;;;;;15.99;100.00;101309.91;5242713;28;20423;-75
2023/03/19 08:46:41;;;;;;;14.15;3.35;;;;;;;16.41;100.00;101308.25;5224468;28;20032;-75
2023/03/19 08:49:11;;;;;;;17.45;3.53;;;;;;;16.29;100.00;101310.66;5239431;28;20103;-75
2023/03/19 08:51:42;;;;;;;18.00;3.97;;;;;;;15.94;100.00;101318.59;5242397;28;20040;-75
2023/03/19 08:54:12;;;;;;;15.68;3.80;;;;;;;15.76;100.00;101319.00;5242304;28;20031;-75
2023/03/19 08:56:43;;;;;;;48.83;27.90;;;;;;;15.72;100.00;101315.00;5242150;28;20431;-75
2023/03/19 08:59:13;;;;;;;26.17;8.63;;;;;;;15.59;100.00;101322.91;5242874;28;20016;-75
2023/03/19 09:01:44;;;;;;;11.95;2.83;;;;;;;15.81;100.00;101323.81;5242451;28;20025;-75
2023/03/19 09:04:14;;;;;;;11.20;3.25;;;;;;;15.14;100.00;101326.59;5242631;28;20514;-75
2023/03/19 09:06:49;;;;;;;18.02;3.42;;;;;;;14.41;100.00;101336.16;5234374;28;20495;-75
2023/03/19 09:09:22;;;;;;;10.60;3.42;;;;;;;13.92;100.00;101345.38;5235571;28;20019;-75
2023/03/19 09:11:53;;;;;;;17.00;4.45;;;;;;;13.55;100.00;101345.19;5242759;28;20020;-75
2023/03/19 09:14:23;;;;;;;18.33;6.25;;;;;;;13.60;100.00;101348.19;5244187;28;20077;-76
2023/03/19 09:16:54;;;;;;;16.77;4.35;;;;;;;13.59;100.00;101352.75;5244030;28;20035;-76
2023/03/19 09:19:25;;;;;;;16.38;3.55;;;;;;;13.92;100.00;101350.78;5245096;28;20107;-76
2023/03/19 09:21:55;;;;;;;17.58;4.55;;;;;;;13.88;100.00;101349.44;5237930;28;20017;-76
2023/03/19 09:24:26;;;;;;;11.10;3.13;;;;;;;14.01;100.00;101351.56;5243250;28;20115;-77
2023/03/19 09:26:56;;;;;;;19.50;6.55;;;;;;;14.04;100.00;101355.75;5242455;28;20021;-76
2023/03/19 09:29:27;;;;;;;11.75;3.30;;;;;;;13.89;100.00;101355.66;5242548;28;20023;-78
2023/03/19 09:31:59;;;;;;;10.23;2.70;;;;;;;14.04;100.00;101353.06;5241787;28;20866;-76
2023/03/19 09:34:30;;;;;;;14.00;4.13;;;;;;;14.15;100.00;101361.59;5239418;28;20028;-76
2023/03/19 09:37:00;;;;;;;14.63;3.90;;;;;;;14.72;100.00;101357.72;5241674;28;20032;-77
2023/03/19 09:39:31;;;;;;;8.15;2.65;;;;;;;15.42;100.00;101354.69;5242409;28;20028;-76
2023/03/19 09:42:08;;;;;;;10.82;3.10;;;;;;;15.45;100.00;101367.81;5241820;28;20036;-77
2023/03/19 09:44:43;;;;;;;13.52;3.47;;;;;;;15.33;100.00;101366.63;5241818;28;20039;-77
2023/03/19 09:47:30;;;;;;;14.13;2.53;;;;;;;15.29;100.00;101368.00;5241659;28;20665;-77
2023/03/19 09:50:05;;;;;;;13.95;3.47;;;;;;;15.21;100.00;101371.66;5237333;28;20020;-77
2023/03/19 09:52:57;;;;;;;13.23;2.72;;;;;;;16.20;100.00;101371.34;5246046;28;20047;-78
2023/03/19 09:55:29;;;;;;;10.60;3.10;;;;;;;16.47;100.00;101373.34;5245749;28;20600;-78
2023/03/19 09:58:01;;;;;;;11.50;2.70;;;;;;;16.79;100.00;101368.47;5246582;28;20078;-78
2023/03/19 10:00:36;;;;;;;8.30;2.70;;;;;;;16.57;100.00;101375.72;5246783;28;20102;-76
2023/03/19 10:03:26;;;;;;;9.40;3.17;;;;;;;16.56;100.00;101382.16;5243884;28;20024;-76
2023/03/19 10:06:34;;;;;;;9.77;2.83;;;;;;;15.95;100.00;101381.66;5246333;28;20435;-76
2023/03/19 10:09:42;;;;;;;218.73;97.38;;;;;;;15.58;100.00;101388.00;5241843;28;20376;-75
2023/03/19 10:12:49;;;;;;;12.43;4.95;;;;;;;15.22;100.00;101389.53;5240866;28;20033;-78
2023/03/19 10:15:24;;;;;;;10.60;2.70;;;;;;;14.94;100.00;101396.53;5247147;28;20024;-76
2023/03/19 10:18:20;;;;;;;11.20;2.85;;;;;;;14.76;100.00;101395.00;5246230;28;20033;-77
2023/03/19 10:20:56;;;;;;;11.68;2.47;;;;;;;14.61;100.00;101402.19;5242190;28;20135;-76
2023/03/19 10:23:49;;;;;;;12.23;3.28;;;;;;;14.34;100.00;101406.19;5247168;28;20028;-76
2023/03/19 10:26:25;;;;;;;11.02;3.15;;;;;;;14.20;100.00;101396.97;5246614;28;20086;-76
2023/03/19 10:29:14;;;;;;;9.27;2.83;;;;;;;14.19;100.00;101405.25;5246977;28;20025;-77
2023/03/19 10:31:52;;;;;;;12.63;3.50;;;;;;;14.17;100.00;101402.75;5246480;28;20107;-77
2023/03/19 10:34:30;;;;;;;9.77;2.83;;;;;;;14.19;100.00;101408.81;5244328;28;20017;-76
2023/03/19 10:37:02;;;;;;;9.50;2.72;;;;;;;14.11;100.00;101416.94;5247193;28;20024;-76
2023/03/19 10:39:35;;;;;;;11.82;3.20;;;;;;;14.11;100.00;101414.25;5246907;28;20050;-78
2023/03/19 10:42:25;;;;;;;10.68;3.15;;;;;;;14.11;100.00;101416.94;5243599;28;20047;-77
2023/03/19 10:45:24;;;;;;;10.18;2.58;;;;;;;14.11;100.00;101416.13;5246350;28;20032;-77
2023/03/19 10:47:56;;;;;;;11.50;2.80;;;;;;;14.09;100.00;101410.88;5246136;28;20680;-76
2023/03/19 10:50:41;;;;;;;14.23;3.63;;;;;;;14.04;100.00;101410.56;5245185;28;20021;-77
2023/03/19 10:53:12;;;;;;;14.87;3.30;;;;;;;13.91;100.00;101413.00;5246409;28;20060;-76
2023/03/19 10:55:46;;;;;;;11.30;2.83;;;;;;;13.75;100.00;101405.78;5246340;28;20477;-76
2023/03/19 10:58:19;;;;;;;16.08;3.92;;;;;;;13.70;100.00;101406.31;5246061;28;20078;-76
2023/03/19 11:00:57;;;;;;;15.32;3.17;;;;;;;14.10;100.00;101415.25;5245362;28;20484;-77
2023/03/19 11:03:30;;;;;;;16.02;3.30;;;;;;;14.20;100.00;101413.16;5245284;28;20054;-76
2023/03/19 11:06:05;;;;;;;11.02;3.50;;;;;;;14.40;100.00;101415.44;5238837;28;20025;-77
2023/03/19 11:08:37;;;;;;;9.40;3.20;;;;;;;14.74;100.00;101418.63;5241648;28;20430;-77
2023/03/19 11:11:33;;;;;;;11.02;3.10;;;;;;;15.05;100.00;101417.72;5246073;28;20016;-77
2023/03/19 11:14:06;;;;;;;;;;;;;;;15.13;100.00;101417.66;5245180;28;20024;-76
2023/03/19 11:16:48;;;;;;;13.88;3.65;;;;;;;15.26;100.00;101404.38;5245435;28;20288;-76
2023/03/19 11:19:53;;;;;;;17.73;4.45;;;;;;;15.00;100.00;101422.81;5245525;28;20497;-76
2023/03/19 11:22:30;;;;;;;14.45;4.00;;;;;;;14.78;100.00;101413.72;5237190;28;20036;-79
2023/03/19 11:25:36;;;;;;;15.00;3.65;;;;;;;14.48;100.00;101424.38;5246111;28;20027;-76
2023/03/19 11:28:11;;;;;;;19.35;6.45;;;;;;;14.57;100.00;101416.22;5237948;28;20543;-77
2023/03/19 11:30:57;;;;;;;12.00;4.03;;;;;;;14.83;100.00;101422.13;5239050;28;20090;-78
2023/03/19 11:33:51;;;;;;;23.40;9.02;;;;;;;14.97;100.00;101417.81;5244913;28;20393;-79
2023/03/19 11:36:38;;;;;;;15.35;4.57;;;;;;;15.06;100.00;101414.00;5236032;28;20107;-78
2023/03/19 11:39:32;;;;;;;16.58;5.10;;;;;;;15.23;100.00;101420.94;5247385;28;20032;-76